Time;durP1;ratioP1;P1;durP2;ratioP2;P2;SDS_P1;SDS_P2;PMS_P1;PMS_P2;Temp;Humidity;BMP_temperature;BMP_pressure;BME280_temperature;BME280_humidity;BME280_pressure;Samples;Min_cycle;Max_cycle;Signal;HPM_P1;HPM_P2
2023/07/25 00:01:54;;;;;;;36.13;34.88;;;17.70;99.90;;;;;;5047238;28;20250;-67
2023/07/25 00:04:21;;;;;;;32.58;31.35;;;17.70;99.90;;;;;;5045449;28;20232;-68
2023/07/25 00:06:48;;;;;;;32.08;30.95;;;17.70;99.90;;;;;;5034555;28;20233;-67
2023/07/25 00:09:15;;;;;;;34.90;33.67;;;17.80;99.90;;;;;;5034021;28;20204;-68
2023/07/25 00:11:42;;;;;;;42.88;41.35;;;17.80;99.90;;;;;;5035333;28;20205;-69
2023/07/25 00:14:10;;;;;;;39.78;38.38;;;17.90;99.90;;;;;;5035032;28;20686;-65
2023/07/25 00:16:37;;;;;;;46.83;45.22;;;18.00;99.90;;;;;;5036068;28;20228;-68
2023/07/25 00:19:04;;;;;;;43.00;41.50;;;18.00;99.90;;;;;;5034584;28;20284;-68
2023/07/25 00:21:30;;;;;;;46.38;44.67;;;18.10;99.90;;;;;;5034268;28;20236;-66
2023/07/25 00:23:57;;;;;;;40.25;38.85;;;18.10;99.90;;;;;;5034471;28;20657;-66
2023/07/25 00:26:24;;;;;;;38.92;37.55;;;18.20;99.90;;;;;;5034174;28;20279;-66
2023/07/25 00:28:51;;;;;;;38.10;36.70;;;18.20;99.90;;;;;;5034285;28;20204;-66
2023/07/25 00:31:19;;;;;;;38.10;36.80;;;18.10;99.90;;;;;;5033697;28;20577;-68
2023/07/25 00:33:46;;;;;;;42.92;41.42;;;18.00;99.90;;;;;;5034564;28;20255;-67
2023/07/25 00:36:13;;;;;;;38.15;36.75;;;18.00;99.90;;;;;;5033540;28;20774;-67
2023/07/25 00:38:40;;;;;;;38.75;37.33;;;18.00;99.90;;;;;;5032635;28;20295;-67
2023/07/25 00:41:07;;;;;;;40.85;39.35;;;18.00;99.90;;;;;;5031161;28;20693;-68
2023/07/25 00:43:34;;;;;;;29.37;28.30;;;17.90;99.90;;;;;;5031759;28;20240;-66
2023/07/25 00:46:00;;;;;;;48.75;46.90;;;17.90;99.90;;;;;;5032331;28;20320;-67
2023/07/25 00:48:29;;;;;;;48.38;46.53;;;17.80;99.90;;;;;;5032249;28;20302;-68
2023/07/25 00:50:56;;;;;;;28.33;27.33;;;17.70;99.90;;;;;;5031459;28;20207;-68
2023/07/25 00:53:24;;;;;;;27.67;26.70;;;17.70;99.90;;;;;;5032454;28;20303;-67
2023/07/25 00:55:51;;;;;;;32.38;31.23;;;17.50;99.90;;;;;;5031275;28;20322;-67
2023/07/25 00:58:18;;;;;;;35.03;33.78;;;17.50;99.90;;;;;;5032482;28;20209;-66
2023/07/25 01:00:46;;;;;;;37.33;36.03;;;17.50;99.90;;;;;;5031494;28;20220;-66
2023/07/25 01:03:13;;;;;;;38.80;37.42;;;17.50;99.90;;;;;;5033673;28;20259;-67
2023/07/25 01:05:45;;;;;;;38.87;37.47;;;17.50;99.90;;;;;;5033422;28;20290;-67
2023/07/25 01:08:11;;;;;;;29.05;28.00;;;17.40;99.90;;;;;;5032708;28;20199;-68
2023/07/25 01:10:39;;;;;;;26.73;25.77;;;17.50;99.90;;;;;;5032969;28;20291;-67
2023/07/25 01:13:06;;;;;;;28.90;27.90;;;17.60;99.90;;;;;;5033358;28;20563;-66
2023/07/25 01:15:34;;;;;;;31.23;30.17;;;17.50;99.90;;;;;;5033235;28;20291;-67
2023/07/25 01:18:01;;;;;;;29.60;28.57;;;17.60;99.90;;;;;;5032836;28;20205;-67
2023/07/25 01:20:29;;;;;;;29.93;28.87;;;17.60;99.90;;;;;;5032140;28;20225;-66
2023/07/25 01:22:58;;;;;;;27.80;26.80;;;17.60;99.90;;;;;;5030373;28;20215;-68
2023/07/25 01:25:26;;;;;;;26.05;25.13;;;17.60;99.90;;;;;;5032815;28;20216;-65
2023/07/25 01:27:53;;;;;;;27.40;26.45;;;17.60;99.90;;;;;;5032301;28;20256;-67
2023/07/25 01:30:20;;;;;;;24.67;23.80;;;17.70;99.90;;;;;;5031068;28;20605;-68
2023/07/25 01:32:46;;;;;;;34.92;33.63;;;17.70;99.90;;;;;;5031728;28;20398;-68
2023/07/25 01:35:13;;;;;;;24.25;23.40;;;17.70;99.90;;;;;;5031842;28;20231;-66
2023/07/25 01:37:40;;;;;;;21.93;21.17;;;17.70;99.90;;;;;;5032114;28;20256;-67
2023/07/25 01:40:08;;;;;;;20.97;20.23;;;17.70;99.90;;;;;;5032254;28;20212;-67
2023/07/25 01:42:37;;;;;;;19.13;18.43;;;17.80;99.90;;;;;;5032610;28;20670;-65
2023/07/25 01:45:04;;;;;;;18.42;17.80;;;17.80;99.90;;;;;;5031545;28;20307;-66
2023/07/25 01:47:31;;;;;;;22.52;21.75;;;17.80;99.90;;;;;;5031463;28;20235;-66
2023/07/25 01:49:58;;;;;;;19.60;18.93;;;17.80;99.90;;;;;;5030273;28;20204;-66
2023/07/25 01:52:24;;;;;;;17.95;17.33;;;17.80;99.90;;;;;;5030574;28;20212;-67
2023/07/25 01:54:53;;;;;;;17.73;17.13;;;17.80;99.90;;;;;;5030485;28;20205;-67
2023/07/25 01:57:20;;;;;;;19.25;18.58;;;17.80;99.90;;;;;;5024963;28;20236;-66
2023/07/25 01:59:49;;;;;;;21.48;20.67;;;17.80;99.90;;;;;;5030330;28;20670;-66
2023/07/25 02:02:15;;;;;;;18.80;18.10;;;17.80;99.90;;;;;;5031016;28;20263;-66
2023/07/25 02:04:42;;;;;;;17.92;17.33;;;17.80;99.90;;;;;;5030131;28;20211;-66
2023/07/25 02:07:09;;;;;;;15.73;15.15;;;17.80;99.90;;;;;;5030050;28;20225;-65
2023/07/25 02:09:36;;;;;;;18.23;17.63;;;17.80;99.90;;;;;;5029289;28;20212;-67
2023/07/25 02:12:03;;;;;;;15.67;15.13;;;17.80;99.90;;;;;;5029702;28;20609;-66
2023/07/25 02:14:30;;;;;;;18.50;17.90;;;17.80;99.90;;;;;;5030074;28;20235;-66
2023/07/25 02:16:58;;;;;;;18.70;18.07;;;17.70;99.90;;;;;;5029857;28;20782;-66
2023/07/25 02:19:25;;;;;;;16.87;16.27;;;17.60;99.90;;;;;;5029287;28;20327;-67
2023/07/25 02:21:51;;;;;;;16.83;16.23;;;17.50;99.90;;;;;;5031081;28;20613;-67
2023/07/25 02:24:18;;;;;;;15.80;15.23;;;17.50;99.90;;;;;;5032886;28;20200;-67
2023/07/25 02:26:45;;;;;;;16.33;15.77;;;17.50;99.90;;;;;;5049564;28;20230;-66
2023/07/25 02:29:12;;;;;;;17.20;16.60;;;17.40;99.90;;;;;;5048585;28;20204;-66
2023/07/25 02:31:39;;;;;;;16.93;16.37;;;17.40;99.90;;;;;;5048495;28;20293;-65
2023/07/25 02:34:07;;;;;;;14.73;14.23;;;17.50;99.90;;;;;;5050678;28;20206;-66
2023/07/25 02:36:34;;;;;;;15.63;15.07;;;17.50;99.90;;;;;;5052314;28;20223;-66
2023/07/25 02:39:01;;;;;;;14.95;14.25;;;17.60;99.90;;;;;;5051150;28;20644;-66
2023/07/25 02:41:28;;;;;;;15.97;15.37;;;17.70;99.90;;;;;;5049891;28;20255;-67
2023/07/25 02:43:55;;;;;;;13.73;13.27;;;17.70;99.90;;;;;;5048973;28;20214;-66
2023/07/25 02:46:21;;;;;;;14.60;14.10;;;17.70;99.90;;;;;;5049407;28;20228;-65
2023/07/25 02:48:48;;;;;;;15.87;15.33;;;17.70;99.90;;;;;;5049117;28;20219;-67
2023/07/25 02:51:16;;;;;;;14.60;14.10;;;17.70;99.90;;;;;;5032602;28;20197;-66
2023/07/25 02:53:43;;;;;;;11.48;11.07;;;17.80;99.90;;;;;;5030110;28;20262;-67
2023/07/25 02:56:10;;;;;;;11.85;11.45;;;17.80;99.90;;;;;;5029387;28;20232;-67
2023/07/25 02:58:37;;;;;;;12.10;11.70;;;17.80;99.90;;;;;;5029510;28;20204;-66
2023/07/25 03:01:03;;;;;;;12.70;12.23;;;17.90;99.90;;;;;;5028814;28;20281;-67
2023/07/25 03:03:30;;;;;;;13.25;12.77;;;17.90;99.90;;;;;;5029433;28;20224;-66
2023/07/25 03:05:57;;;;;;;11.93;11.52;;;17.90;99.90;;;;;;5029831;28;20228;-65
2023/07/25 03:08:25;;;;;;;11.60;11.20;;;17.90;99.90;;;;;;5029053;28;20204;-66
2023/07/25 03:10:52;;;;;;;11.38;10.98;;;18.00;99.90;;;;;;5028559;28;20211;-66
2023/07/25 03:13:19;;;;;;;11.00;10.60;;;18.00;99.90;;;;;;5030106;28;20215;-68
2023/07/25 03:15:46;;;;;;;11.07;10.68;;;18.00;99.90;;;;;;5029476;28;20223;-65
2023/07/25 03:18:12;;;;;;;12.20;11.77;;;18.00;99.90;;;;;;5029264;28;20766;-66
2023/07/25 03:20:39;;;;;;;12.55;12.13;;;18.00;99.90;;;;;;5028515;28;20243;-66
2023/07/25 03:23:06;;;;;;;13.68;13.20;;;18.10;99.90;;;;;;5031924;28;20200;-66
2023/07/25 03:25:34;;;;;;;13.48;13.00;;;18.00;99.90;;;;;;5033183;28;20207;-67
2023/07/25 03:28:01;;;;;;;14.50;13.98;;;18.00;99.90;;;;;;5051563;28;20200;-67
2023/07/25 03:30:28;;;;;;;17.80;17.20;;;18.00;99.90;;;;;;5052537;28;20215;-67
2023/07/25 03:32:55;;;;;;;14.98;14.48;;;18.10;99.90;;;;;;5052550;28;20225;-65
2023/07/25 03:35:21;;;;;;;19.67;19.00;;;18.00;99.90;;;;;;5053084;28;20207;-66
2023/07/25 03:37:48;;;;;;;17.57;16.97;;;18.00;99.90;;;;;;5065379;28;20227;-67
2023/07/25 03:40:15;;;;;;;17.20;16.60;;;17.90;99.90;;;;;;5066789;28;20231;-66
2023/07/25 03:42:43;;;;;;;16.23;15.63;;;17.80;99.90;;;;;;5065086;28;20315;-67
2023/07/25 03:45:11;;;;;;;18.37;17.73;;;17.80;99.90;;;;;;5053189;28;20208;-66
2023/07/25 03:47:38;;;;;;;18.13;17.45;;;17.80;99.90;;;;;;5053736;28;20232;-65
2023/07/25 03:50:05;;;;;;;15.93;15.37;;;17.80;99.90;;;;;;5055014;28;20214;-65
2023/07/25 03:52:32;;;;;;;16.40;15.80;;;17.80;99.90;;;;;;5052351;28;20210;-65
2023/07/25 03:54:59;;;;;;;13.43;12.73;;;17.80;99.90;;;;;;5053563;28;20298;-68
2023/07/25 03:57:26;;;;;;;11.17;10.77;;;17.80;99.90;;;;;;5053925;28;20232;-68
2023/07/25 03:59:55;;;;;;;11.67;11.27;;;17.90;99.90;;;;;;5051469;28;20583;-66
2023/07/25 04:02:22;;;;;;;13.60;13.13;;;17.90;99.90;;;;;;5052621;28;20228;-68
2023/07/25 04:04:48;;;;;;;15.50;15.00;;;17.90;99.90;;;;;;5051998;28;20204;-68
2023/07/25 04:07:15;;;;;;;13.73;13.25;;;18.00;99.90;;;;;;5052192;28;20710;-66
2023/07/25 04:09:42;;;;;;;14.02;13.43;;;17.90;99.90;;;;;;5051543;28;20208;-66
2023/07/25 04:12:09;;;;;;;14.73;14.23;;;17.90;99.90;;;;;;5051976;28;20580;-65
2023/07/25 04:14:36;;;;;;;13.48;13.00;;;17.90;99.90;;;;;;5050767;28;20204;-66
2023/07/25 04:17:04;;;;;;;13.40;12.93;;;17.90;99.90;;;;;;5053004;28;20293;-66
2023/07/25 04:19:31;;;;;;;11.85;11.45;;;17.90;99.90;;;;;;5052213;28;20212;-66
2023/07/25 04:21:58;;;;;;;12.50;12.10;;;17.90;99.90;;;;;;5053016;28;20234;-66
2023/07/25 04:24:25;;;;;;;12.35;11.93;;;17.90;99.90;;;;;;5052567;28;20633;-66
2023/07/25 04:26:52;;;;;;;12.60;12.10;;;17.80;99.90;;;;;;5052950;28;20307;-66
2023/07/25 04:29:18;;;;;;;12.50;12.10;;;17.90;99.90;;;;;;5052166;28;20299;-69
2023/07/25 04:31:45;;;;;;;12.20;11.80;;;17.90;99.90;;;;;;5052945;28;20691;-65
2023/07/25 04:34:13;;;;;;;11.98;11.57;;;17.90;99.90;;;;;;5055318;28;20208;-67
2023/07/25 04:36:40;;;;;;;11.95;11.55;;;17.90;99.90;;;;;;5069026;28;20247;-67
2023/07/25 04:39:07;;;;;;;11.70;11.30;;;17.80;99.90;;;;;;5070423;28;20263;-68
2023/07/25 04:41:34;;;;;;;11.38;10.98;;;17.90;99.90;;;;;;5067157;28;20240;-66
2023/07/25 04:44:01;;;;;;;12.98;12.50;;;17.80;99.90;;;;;;5060263;28;20204;-65
2023/07/25 04:46:28;;;;;;;11.88;11.48;;;17.70;99.90;;;;;;5054378;28;20598;-64
2023/07/25 04:48:54;;;;;;;12.00;11.60;;;17.70;99.90;;;;;;5039984;28;20212;-65
2023/07/25 04:51:23;;;;;;;11.20;10.70;;;17.70;99.90;;;;;;5033850;28;20216;-65
2023/07/25 04:53:50;;;;;;;11.93;11.53;;;17.60;99.90;;;;;;5034138;28;20201;-65
2023/07/25 04:56:16;;;;;;;10.95;10.55;;;17.60;99.90;;;;;;5036479;28;20246;-65
2023/07/25 04:58:43;;;;;;;8.80;8.50;;;17.70;99.90;;;;;;5033330;28;20270;-59
2023/07/25 05:01:12;;;;;;;8.40;8.10;;;17.80;99.90;;;;;;5036904;28;20208;-59
2023/07/25 05:03:39;;;;;;;7.80;7.50;;;18.30;99.90;;;;;;5046564;28;20246;-59
2023/07/25 05:06:06;;;;;;;7.88;7.57;;;18.90;99.90;;;;;;5037569;28;20251;-58
2023/07/25 05:08:34;;;;;;;7.85;7.55;;;19.30;99.90;;;;;;5049725;28;20204;-58
2023/07/25 05:11:02;;;;;;;8.57;8.27;;;19.60;99.90;;;;;;5057663;28;20206;-58
2023/07/25 05:13:28;;;;;;;8.10;7.80;;;19.90;99.90;;;;;;5054699;28;20564;-59
2023/07/25 05:15:55;;;;;;;8.60;8.30;;;20.00;99.90;;;;;;5052660;28;20241;-60
2023/07/25 05:18:22;;;;;;;8.98;8.68;;;20.10;99.90;;;;;;5052696;28;20315;-57
2023/07/25 05:20:49;;;;;;;10.13;9.83;;;20.20;99.90;;;;;;5051329;28;20210;-58
2023/07/25 05:23:16;;;;;;;8.45;8.15;;;20.20;99.90;;;;;;5052095;28;20226;-60
2023/07/25 05:25:46;;;;;;;9.25;8.95;;;20.20;99.90;;;;;;5049866;28;20545;-61
2023/07/25 05:28:13;;;;;;;9.77;9.48;;;20.20;99.90;;;;;;5031725;28;20296;-59
2023/07/25 05:30:40;;;;;;;9.27;8.97;;;20.20;99.90;;;;;;5029812;28;20211;-59
2023/07/25 05:33:07;;;;;;;9.88;9.52;;;20.20;99.90;;;;;;5031185;28;20205;-60
2023/07/25 05:35:38;;;;;;;10.82;10.43;;;20.20;99.90;;;;;;5031590;28;20205;-67
2023/07/25 05:38:07;;;;;;;10.50;10.15;;;19.80;99.90;;;;;;5030671;28;20200;-66
2023/07/25 05:40:34;;;;;;;10.55;10.15;;;19.40;99.90;;;;;;5046650;28;20353;-63
2023/07/25 05:43:03;;;;;;;11.35;10.95;;;19.10;99.90;;;;;;5048114;28;20236;-65
2023/07/25 05:45:29;;;;;;;11.97;11.57;;;18.80;99.90;;;;;;5031215;28;20201;-64
2023/07/25 05:47:56;;;;;;;11.37;10.97;;;18.70;99.90;;;;;;5034733;28;20243;-65
2023/07/25 05:50:23;;;;;;;10.80;10.40;;;18.60;99.90;;;;;;5042942;28;20204;-63
2023/07/25 05:52:50;;;;;;;11.35;10.95;;;18.50;99.90;;;;;;5042838;28;20663;-64
2023/07/25 05:55:17;;;;;;;11.95;11.55;;;18.50;99.90;;;;;;5042187;28;20202;-63
2023/07/25 05:57:44;;;;;;;11.20;10.80;;;18.50;99.90;;;;;;5034211;28;20241;-64
2023/07/25 06:00:13;;;;;;;11.13;10.73;;;18.60;99.90;;;;;;5037362;28;20210;-65
2023/07/25 06:02:40;;;;;;;11.32;10.93;;;18.60;99.90;;;;;;5045886;28;20610;-64
2023/07/25 06:05:09;;;;;;;10.25;9.95;;;18.60;99.90;;;;;;5047858;28;20287;-65
2023/07/25 06:07:36;;;;;;;11.00;10.60;;;18.60;99.90;;;;;;5042945;28;20946;-64
2023/07/25 06:10:03;;;;;;;10.95;10.55;;;18.60;99.90;;;;;;5042629;28;20210;-64
2023/07/25 06:12:30;;;;;;;11.25;10.85;;;18.60;99.90;;;;;;5049969;28;20188;-65
2023/07/25 06:14:57;;;;;;;10.32;9.93;;;18.60;99.90;;;;;;5050063;28;20200;-65
2023/07/25 06:17:25;;;;;;;10.88;10.48;;;18.80;99.90;;;;;;5049493;28;20234;-64
2023/07/25 06:19:52;;;;;;;11.17;10.77;;;18.90;99.90;;;;;;5048866;28;20430;-64
2023/07/25 06:22:19;;;;;;;11.18;10.77;;;19.20;99.90;;;;;;5049759;28;20232;-64
2023/07/25 06:24:47;;;;;;;11.93;11.53;;;19.40;99.90;;;;;;5049752;28;20206;-64
2023/07/25 06:27:14;;;;;;;13.80;13.30;;;19.60;99.90;;;;;;5050034;28;20227;-65
2023/07/25 06:29:40;;;;;;;16.77;16.17;;;19.80;99.90;;;;;;5049444;28;20244;-66
2023/07/25 06:32:08;;;;;;;15.75;15.25;;;19.90;99.90;;;;;;5050320;28;20204;-64
2023/07/25 06:34:36;;;;;;;15.60;15.10;;;19.90;99.90;;;;;;5050017;28;20214;-65
2023/07/25 06:37:03;;;;;;;20.50;19.80;;;19.80;99.90;;;;;;5049798;28;20232;-64
2023/07/25 06:39:30;;;;;;;15.45;14.95;;;19.70;99.90;;;;;;5049134;28;20432;-65
2023/07/25 06:41:56;;;;;;;15.90;15.40;;;19.50;99.90;;;;;;5049813;28;20241;-66
2023/07/25 06:44:23;;;;;;;15.05;14.55;;;19.50;99.90;;;;;;5050004;28;20572;-65
2023/07/25 06:46:50;;;;;;;17.23;16.63;;;19.30;99.90;;;;;;5049998;28;20239;-65
2023/07/25 06:49:17;;;;;;;14.82;14.32;;;19.20;99.90;;;;;;5049074;28;20688;-64
2023/07/25 06:51:45;;;;;;;14.97;14.47;;;19.10;99.90;;;;;;5050072;28;20583;-64
2023/07/25 06:54:12;;;;;;;13.60;13.10;;;19.10;99.90;;;;;;5050031;28;20214;-63
2023/07/25 06:56:39;;;;;;;14.47;13.97;;;19.10;99.90;;;;;;5050071;28;20240;-64
2023/07/25 06:59:06;;;;;;;16.23;15.70;;;19.00;99.90;;;;;;5047765;28;20207;-64
2023/07/25 07:01:33;;;;;;;16.98;16.38;;;19.10;99.90;;;;;;5029228;28;20299;-63
2023/07/25 07:03:59;;;;;;;16.60;16.00;;;19.00;99.90;;;;;;5029606;28;20205;-64
2023/07/25 07:06:26;;;;;;;18.60;18.00;;;19.00;99.90;;;;;;5030271;28;20342;-65
2023/07/25 07:08:54;;;;;;;25.33;24.43;;;19.00;99.90;;;;;;5037850;28;20283;-65
2023/07/25 07:11:21;;;;;;;19.52;18.83;;;19.00;99.90;;;;;;5038334;28;20200;-65
2023/07/25 07:13:48;;;;;;;20.75;20.05;;;19.00;99.90;;;;;;5039651;28;20192;-64
2023/07/25 07:16:15;;;;;;;27.20;26.25;;;19.10;99.90;;;;;;5040518;28;20650;-61
2023/07/25 07:18:42;;;;;;;20.42;19.73;;;19.10;99.90;;;;;;5050353;28;20269;-63
2023/07/25 07:21:08;;;;;;;22.47;21.67;;;19.20;99.90;;;;;;5035336;28;20212;-64
2023/07/25 07:23:35;;;;;;;24.50;23.60;;;19.20;99.90;;;;;;5028841;28;20228;-62
2023/07/25 07:26:03;;;;;;;25.67;24.77;;;19.30;99.90;;;;;;5030239;28;20319;-65
2023/07/25 07:28:30;;;;;;;29.48;28.48;;;19.30;99.90;;;;;;5030067;28;20576;-65
2023/07/25 07:30:57;;;;;;;26.13;25.20;;;19.40;99.90;;;;;;5028810;28;20204;-65
2023/07/25 07:33:25;;;;;;;27.67;26.70;;;19.40;99.90;;;;;;5029855;28;20231;-63
2023/07/25 07:35:52;;;;;;;27.35;26.38;;;19.40;99.90;;;;;;5029256;28;20312;-64
2023/07/25 07:38:19;;;;;;;33.97;32.78;;;19.50;99.90;;;;;;5030658;28;20215;-63
2023/07/25 07:40:45;;;;;;;31.10;30.00;;;19.50;99.90;;;;;;5031249;28;20276;-63
2023/07/25 07:43:15;;;;;;;36.13;34.85;;;19.60;99.90;;;;;;5030505;28;20236;-64
2023/07/25 07:45:42;;;;;;;31.45;30.35;;;19.60;99.90;;;;;;5030469;28;20213;-63
2023/07/25 07:48:09;;;;;;;32.60;31.50;;;19.70;99.90;;;;;;5033597;28;20254;-64
2023/07/25 07:50:35;;;;;;;29.73;28.65;;;19.70;99.90;;;;;;5030757;28;20211;-63
2023/07/25 07:53:03;;;;;;;26.45;25.52;;;19.70;99.90;;;;;;5033593;28;20208;-63
2023/07/25 07:55:30;;;;;;;28.38;27.38;;;19.70;99.90;;;;;;5046504;28;20266;-64
2023/07/25 07:57:57;;;;;;;29.42;28.38;;;20.00;99.90;;;;;;5051560;28;20223;-65
2023/07/25 08:00:25;;;;;;;31.65;30.55;;;20.30;99.90;;;;;;5063393;22;20224;-68
2023/07/25 08:02:52;;;;;;;27.38;26.40;;;20.60;99.90;;;;;;5050273;28;20724;-66
2023/07/25 08:05:19;;;;;;;24.53;23.63;;;20.70;99.90;;;;;;5051313;28;20749;-66
2023/07/25 08:07:46;;;;;;;27.70;26.73;;;20.80;99.90;;;;;;5050489;28;20235;-66
2023/07/25 08:10:13;;;;;;;24.63;23.77;;;21.00;99.90;;;;;;5051099;28;20227;-67
2023/07/25 08:12:40;;;;;;;15.80;15.27;;;21.10;99.90;;;;;;5053403;28;20200;-68
2023/07/25 08:15:08;;;;;;;10.57;10.18;;;21.20;99.90;;;;;;5053121;28;20251;-68
2023/07/25 08:17:36;;;;;;;19.80;19.00;;;21.30;99.90;;;;;;5053040;28;20203;-66
2023/07/25 08:20:03;;;;;;;12.68;12.27;;;21.50;99.90;;;;;;5052089;28;20803;-67
2023/07/25 08:22:30;;;;;;;18.50;17.85;;;21.60;99.90;;;;;;5053043;28;20224;-67
2023/07/25 08:24:57;;;;;;;15.00;14.50;;;21.80;99.90;;;;;;5052976;28;20200;-67
2023/07/25 08:27:24;;;;;;;16.42;15.82;;;21.80;99.90;;;;;;5052891;28;20298;-65
2023/07/25 08:29:51;;;;;;;16.45;15.85;;;21.70;99.90;;;;;;5052580;28;20232;-67
2023/07/25 08:32:18;;;;;;;14.35;13.88;;;21.60;99.90;;;;;;5053928;28;20210;-66
2023/07/25 08:34:46;;;;;;;14.97;14.47;;;21.50;99.90;;;;;;5053455;28;20208;-67
2023/07/25 08:37:13;;;;;;;15.03;14.53;;;21.40;99.90;;;;;;5052828;28;20215;-66
2023/07/25 08:39:40;;;;;;;14.27;13.80;;;21.40;99.90;;;;;;5053481;28;20232;-67
2023/07/25 08:42:07;;;;;;;15.35;14.85;;;21.30;99.90;;;;;;5053118;28;20204;-65
2023/07/25 08:44:36;;;;;;;15.60;15.10;;;21.30;99.90;;;;;;5056110;28;20222;-67
2023/07/25 08:47:22;;;;;;;14.65;14.15;;;21.20;99.90;;;;;;5052606;28;20214;-67
2023/07/25 08:49:54;;;;;;;12.85;12.43;;;21.10;99.90;;;;;;5051447;28;20227;-66
2023/07/25 08:52:21;;;;;;;14.10;13.60;;;21.10;99.90;;;;;;5052425;28;20204;-65
2023/07/25 08:54:49;;;;;;;13.82;13.30;;;21.10;99.90;;;;;;5060540;28;20211;-64
2023/07/25 08:57:18;;;;;;;12.63;12.20;;;21.00;99.90;;;;;;5060213;28;20801;-66
2023/07/25 08:59:47;;;;;;;17.73;17.13;;;20.90;99.90;;;;;;5051381;28;20788;-66
2023/07/25 09:02:16;;;;;;;13.85;13.38;;;20.90;99.90;;;;;;5052826;28;20207;-66
2023/07/25 09:04:45;;;;;;;17.07;16.50;;;20.90;99.90;;;;;;5053182;28;20214;-65
2023/07/25 09:07:13;;;;;;;21.13;20.38;;;20.80;99.90;;;;;;5053488;28;20650;-65
2023/07/25 09:09:40;;;;;;;14.10;13.60;;;20.80;99.90;;;;;;5051474;28;20247;-65
2023/07/25 09:12:08;;;;;;;19.05;18.40;;;20.80;99.90;;;;;;5055031;28;20208;-65
2023/07/25 09:14:36;;;;;;;13.20;12.73;;;20.80;99.90;;;;;;5056750;28;20211;-65
2023/07/25 09:17:04;;;;;;;20.52;19.85;;;20.80;99.90;;;;;;5054187;28;20219;-65
2023/07/25 09:19:31;;;;;;;22.75;21.98;;;20.80;99.90;;;;;;5058887;28;20231;-65
2023/07/25 09:21:58;;;;;;;31.27;30.15;;;20.80;99.90;;;;;;5057686;28;20678;-65
2023/07/25 09:24:35;;;;;;;28.38;27.38;;;20.70;99.90;;;;;;5053509;28;20240;-65
2023/07/25 09:27:04;;;;;;;29.50;28.45;;;20.50;99.90;;;;;;5053470;28;20215;-67
2023/07/25 09:29:31;;;;;;;42.70;41.20;;;20.40;99.90;;;;;;5052097;28;20228;-66
2023/07/25 09:31:57;;;;;;;29.65;28.63;;;20.30;99.90;;;;;;5052522;28;20246;-67
2023/07/25 09:34:25;;;;;;;23.98;23.15;;;20.20;99.90;;;;;;5052229;28;20236;-65
2023/07/25 09:36:52;;;;;;;25.23;24.35;;;20.20;99.90;;;;;;5052390;28;20219;-66
2023/07/25 09:39:19;;;;;;;27.10;26.15;;;20.20;99.90;;;;;;5051084;28;20596;-65
2023/07/25 09:41:51;;;;;;;46.53;44.37;;;20.20;99.90;;;;;;5046473;28;20199;-65
2023/07/25 09:44:18;;;;;;;17.17;16.57;;;20.30;99.90;;;;;;5049928;28;20212;-65
2023/07/25 09:46:52;;;;;;;30.13;28.83;;;20.50;99.90;;;;;;5051412;28;20284;-65
2023/07/25 09:49:22;;;;;;;13.93;13.43;;;20.70;99.90;;;;;;5049580;28;20215;-66
2023/07/25 09:51:58;;;;;;;13.67;13.17;;;21.00;99.90;;;;;;5048205;28;20197;-65
2023/07/25 09:54:25;;;;;;;11.82;11.43;;;21.40;99.90;;;;;;5048126;28;20208;-66
2023/07/25 09:56:54;;;;;;;14.52;14.00;;;21.70;99.90;;;;;;5050596;28;21441;-65
2023/07/25 09:59:22;;;;;;;13.98;13.48;;;21.90;99.90;;;;;;5049722;28;20257;-66
2023/07/25 10:01:49;;;;;;;16.55;15.95;;;22.20;99.90;;;;;;5046183;28;20203;-66
2023/07/25 10:04:17;;;;;;;17.15;16.55;;;22.30;99.90;;;;;;5043881;28;20247;-66
2023/07/25 10:06:45;;;;;;;13.82;13.35;;;22.40;99.90;;;;;;5047210;28;20693;-67
2023/07/25 10:09:14;;;;;;;17.17;16.58;;;22.40;99.90;;;;;;5048640;28;20259;-66
2023/07/25 10:11:42;;;;;;;17.80;17.20;;;22.30;99.90;;;;;;5047514;28;20623;-65
2023/07/25 10:14:10;;;;;;;17.67;17.08;;;22.50;99.90;;;;;;5050854;28;20521;-65
2023/07/25 10:16:38;;;;;;;16.83;16.25;;;22.80;99.90;;;;;;5050368;28;20212;-66
2023/07/25 10:19:07;;;;;;;17.45;16.85;;;23.20;99.90;;;;;;5049143;28;20305;-66
2023/07/25 10:21:47;;;;;;;14.50;14.00;;;23.20;99.90;;;;;;5051744;28;20206;-66
2023/07/25 10:24:14;;;;;;;15.35;14.82;;;23.50;99.90;;;;;;5049769;28;20281;-64
2023/07/25 10:26:53;;;;;;;21.52;20.73;;;23.70;99.90;;;;;;5050688;28;20258;-66
2023/07/25 10:29:39;;;;;;;12.35;11.95;;;24.00;99.90;;;;;;5049739;28;20240;-65
2023/07/25 10:32:07;;;;;;;14.27;13.77;;;24.00;99.90;;;;;;5049787;28;20506;-67
2023/07/25 10:34:51;;;;;;;14.15;13.65;;;24.20;99.90;;;;;;5048720;28;20200;-65
2023/07/25 10:37:27;;;;;;;14.50;14.00;;;24.50;99.90;;;;;;5047815;28;20211;-66
2023/07/25 10:40:09;;;;;;;13.98;13.48;;;24.60;99.90;;;;;;5042950;28;20231;-66
2023/07/25 10:42:42;;;;;;;14.05;13.55;;;24.50;99.90;;;;;;5044440;28;20181;-67
2023/07/25 10:45:20;;;;;;;13.23;12.77;;;24.20;99.90;;;;;;5042803;28;20593;-67
2023/07/25 10:47:49;;;;;;;12.20;11.80;;;24.20;99.90;;;;;;5049594;28;20452;-66
2023/07/25 10:50:18;;;;;;;11.88;11.48;;;24.30;99.90;;;;;;5042608;28;20212;-66
2023/07/25 10:52:47;;;;;;;11.25;10.85;;;24.40;99.90;;;;;;5037327;28;20189;-64
2023/07/25 10:55:14;;;;;;;11.88;11.48;;;24.60;99.90;;;;;;5043758;28;20205;-65
2023/07/25 10:57:41;;;;;;;11.60;11.20;;;24.80;99.90;;;;;;5033952;28;20211;-65
2023/07/25 11:00:11;;;;;;;16.50;15.90;;;24.90;99.90;;;;;;5031614;28;20239;-66
2023/07/25 11:02:40;;;;;;;15.50;14.98;;;24.90;99.90;;;;;;5048021;28;20204;-66
2023/07/25 11:05:25;;;;;;;13.55;13.05;;;24.80;99.90;;;;;;5036830;28;20225;-65
2023/07/25 11:07:54;;;;;;;13.98;13.50;;;24.60;99.90;;;;;;5031325;28;20205;-67
2023/07/25 11:10:23;;;;;;;15.43;14.93;;;24.80;99.90;;;;;;5031073;28;20227;-64
2023/07/25 11:12:52;;;;;;;13.40;12.98;;;25.20;99.90;;;;;;5032168;28;20212;-67
2023/07/25 11:15:21;;;;;;;14.75;14.25;;;25.50;99.90;;;;;;5046960;28;20208;-66
2023/07/25 11:17:48;;;;;;;11.15;10.75;;;25.60;99.90;;;;;;5052901;28;20214;-65
2023/07/25 11:20:17;;;;;;;13.02;12.63;;;25.60;99.90;;;;;;5046907;28;20235;-65
2023/07/25 11:22:44;;;;;;;15.27;14.77;;;25.70;99.90;;;;;;5044914;28;20210;-66
2023/07/25 11:25:11;;;;;;;12.93;12.50;;;25.60;99.90;;;;;;5047618;28;20227;-66
2023/07/25 11:27:42;;;;;;;19.10;18.17;;;25.80;99.90;;;;;;5049085;28;20230;-66
2023/07/25 11:30:14;;;;;;;12.45;12.05;;;25.50;99.90;;;;;;5045929;28;20266;-64
2023/07/25 11:32:47;;;;;;;12.30;11.90;;;25.10;99.90;;;;;;5046009;28;20282;-65
2023/07/25 11:35:14;;;;;;;11.75;11.35;;;24.80;99.90;;;;;;5048473;28;20197;-64
2023/07/25 11:37:41;;;;;;;12.52;12.10;;;24.40;99.90;;;;;;5046085;28;20204;-65
2023/07/25 11:40:13;;;;;;;10.32;10.02;;;24.40;99.90;;;;;;5048383;28;20220;-65
2023/07/25 11:42:41;;;;;;;11.95;11.45;;;24.80;99.90;;;;;;5048668;28;20200;-66
2023/07/25 11:45:10;;;;;;;8.57;8.27;;;25.20;99.90;;;;;;5054926;28;20233;-65
2023/07/25 11:47:38;;;;;;;9.73;9.43;;;25.60;99.90;;;;;;5051162;28;20200;-65
2023/07/25 11:50:07;;;;;;;96.63;90.97;;;25.40;99.90;;;;;;5048385;28;20216;-66
2023/07/25 11:52:35;;;;;;;20.13;19.25;;;24.30;99.90;;;;;;5048626;28;20196;-64
2023/07/25 11:55:02;;;;;;;18.92;18.13;;;23.30;99.90;;;;;;5053443;28;20192;-65
2023/07/25 11:57:29;;;;;;;16.05;15.38;;;22.40;99.90;;;;;;5054077;28;20226;-65
2023/07/25 11:59:56;;;;;;;13.65;13.15;;;21.70;99.90;;;;;;5053326;28;20240;-64
2023/07/25 12:02:24;;;;;;;9.52;8.93;;;21.30;99.90;;;;;;5054031;28;20208;-65
2023/07/25 12:04:52;;;;;;;13.05;12.55;;;21.20;99.90;;;;;;5048472;28;20223;-65
2023/07/25 12:07:20;;;;;;;7.70;7.50;;;21.00;99.90;;;;;;5047978;28;20208;-65
2023/07/25 12:09:52;;;;;;;8.27;7.97;;;20.80;99.90;;;;;;5052951;28;20238;-64
2023/07/25 12:12:19;;;;;;;7.70;7.43;;;20.70;99.90;;;;;;5055251;28;20650;-66
2023/07/25 12:14:54;;;;;;;7.20;7.00;;;20.70;99.90;;;;;;5056825;28;20291;-66
2023/07/25 12:17:21;;;;;;;7.50;7.30;;;20.70;99.90;;;;;;5050526;28;20289;-64
2023/07/25 12:19:53;;;;;;;7.30;7.10;;;20.60;99.90;;;;;;5033541;28;20232;-64
2023/07/25 12:22:21;;;;;;;7.80;7.50;;;20.60;99.90;;;;;;5042269;28;20214;-65
2023/07/25 12:24:48;;;;;;;7.80;7.60;;;20.60;99.90;;;;;;5040240;28;20228;-64
2023/07/25 12:27:19;;;;;;;7.78;7.47;;;20.70;99.90;;;;;;5044991;28;20203;-65
2023/07/25 12:29:46;;;;;;;7.78;7.47;;;20.80;99.90;;;;;;5041246;28;20217;-65
2023/07/25 12:32:13;;;;;;;7.70;7.50;;;20.80;99.90;;;;;;5045248;28;20210;-66